BHE514 ZPPP-ZSNJ
Flight info
| Callsign | BHE514 |
|---|---|
| Flight time | 2h 6m |
| Altitude | FL411 |
| Route | NOD9Z NODIB W137 LPS A581 WHA R343 HFE W51 LEGIV W164 OREVO |
| Aircraft | A359/H-SDE2E3GHIJ3J4J5LM1ORWXY/LB1D1 |
Departure
| Time | 2026-05-04 13:44 |
|---|---|
| Airport | Kunming Changshui International Airport (ZPPP) |
Arrival
| Time | 2026-05-04 15:51 |
|---|---|
| Airport | Nanjing Lukou International Airport (ZSNJ) |
| Time | Latitude | Longitude | Altitude | Speed | Heading |
|---|---|---|---|---|---|
| 2026-05-04 13:21 | 25.10667 | 102.93002 | 6910 ft | 0 kts | 255° |
| 2026-05-04 13:31 | 25.10667 | 102.93003 | 6927 ft | 1 kts | 253° |
| 2026-05-04 13:32 | 25.10674 | 102.93029 | 6924 ft | 4 kts | 256° |
| 2026-05-04 13:32 | 25.10681 | 102.93050 | 6924 ft | 2 kts | 233° |
| 2026-05-04 13:32 | 25.10695 | 102.93072 | 6924 ft | 4 kts | 236° |
| 2026-05-04 13:32 | 25.10711 | 102.93097 | 6924 ft | 4 kts | 231° |
| 2026-05-04 13:33 | 25.10721 | 102.93110 | 6924 ft | 3 kts | 226° |
| 2026-05-04 13:34 | 25.10720 | 102.93109 | 6924 ft | 0 kts | 226° |
| 2026-05-04 13:34 | 25.10719 | 102.93107 | 6924 ft | 0 kts | 229° |
| 2026-05-04 13:34 | 25.10716 | 102.93099 | 6924 ft | 1 kts | 255° |
| 2026-05-04 13:35 | 25.10719 | 102.93092 | 6924 ft | 1 kts | 290° |
| 2026-05-04 13:35 | 25.10779 | 102.93061 | 6916 ft | 11 kts | 342° |
| 2026-05-04 13:35 | 25.10848 | 102.93008 | 6924 ft | 14 kts | 315° |
| 2026-05-04 13:36 | 25.10920 | 102.92905 | 6917 ft | 20 kts | 307° |
| 2026-05-04 13:36 | 25.11010 | 102.92780 | 6924 ft | 21 kts | 311° |
| 2026-05-04 13:36 | 25.11106 | 102.92727 | 6922 ft | 8 kts | 19° |
| 2026-05-04 13:36 | 25.11151 | 102.92758 | 6926 ft | 10 kts | 32° |
| 2026-05-04 13:37 | 25.11214 | 102.92803 | 6918 ft | 11 kts | 35° |
| 2026-05-04 13:37 | 25.11286 | 102.92863 | 6920 ft | 15 kts | 37° |
| 2026-05-04 13:37 | 25.11384 | 102.92946 | 6917 ft | 20 kts | 37° |
| 2026-05-04 13:37 | 25.11463 | 102.93015 | 6923 ft | 23 kts | 40° |
| 2026-05-04 13:38 | 25.11649 | 102.93178 | 6920 ft | 28 kts | 38° |
| 2026-05-04 13:38 | 25.11811 | 102.93319 | 6913 ft | 30 kts | 38° |
| 2026-05-04 13:38 | 25.11977 | 102.93464 | 6915 ft | 31 kts | 38° |
| 2026-05-04 13:38 | 25.12143 | 102.93606 | 6920 ft | 30 kts | 38° |
| 2026-05-04 13:39 | 25.12310 | 102.93748 | 6921 ft | 30 kts | 38° |
| 2026-05-04 13:39 | 25.12476 | 102.93894 | 6916 ft | 31 kts | 38° |
| 2026-05-04 13:39 | 25.12644 | 102.94040 | 6904 ft | 31 kts | 38° |
| 2026-05-04 13:39 | 25.12813 | 102.94188 | 6903 ft | 31 kts | 38° |
| 2026-05-04 13:40 | 25.12909 | 102.94261 | 6902 ft | 0 kts | 20° |
| 2026-05-04 13:40 | 25.12910 | 102.94261 | 6902 ft | 0 kts | 20° |
| 2026-05-04 13:40 | 25.12928 | 102.94265 | 6902 ft | 4 kts | 2° |
| 2026-05-04 13:40 | 25.12955 | 102.94256 | 6902 ft | 5 kts | 335° |
| 2026-05-04 13:41 | 25.12983 | 102.94229 | 6902 ft | 7 kts | 315° |
| 2026-05-04 13:41 | 25.13013 | 102.94182 | 6900 ft | 9 kts | 297° |
| 2026-05-04 13:41 | 25.13019 | 102.94140 | 6900 ft | 4 kts | 249° |
| 2026-05-04 13:42 | 25.12977 | 102.94091 | 6900 ft | 5 kts | 220° |
| 2026-05-04 13:42 | 25.12947 | 102.94065 | 6901 ft | 5 kts | 218° |
| 2026-05-04 13:42 | 25.12945 | 102.94064 | 6901 ft | 0 kts | 218° |
| 2026-05-04 13:43 | 25.12932 | 102.94052 | 6901 ft | 13 kts | 218° |
| 2026-05-04 13:44 | 25.12667 | 102.93827 | 6910 ft | 84 kts | 217° |
| 2026-05-04 13:44 | 25.12031 | 102.93280 | 6921 ft | 150 kts | 219° |
| 2026-05-04 13:44 | 25.11070 | 102.92436 | 7191 ft | 191 kts | 217° |
| 2026-05-04 13:44 | 25.09942 | 102.91477 | 7802 ft | 222 kts | 220° |
| 2026-05-04 13:45 | 25.08797 | 102.90173 | 8437 ft | 251 kts | 233° |
| 2026-05-04 13:45 | 25.07811 | 102.88576 | 9315 ft | 252 kts | 239° |
| 2026-05-04 13:45 | 25.06847 | 102.86966 | 10312 ft | 254 kts | 237° |
| 2026-05-04 13:45 | 25.05834 | 102.85362 | 11150 ft | 257 kts | 237° |
| 2026-05-04 13:46 | 25.04782 | 102.83752 | 11970 ft | 262 kts | 237° |
| 2026-05-04 13:46 | 25.03700 | 102.82124 | 12824 ft | 264 kts | 237° |
| 2026-05-04 13:46 | 25.02600 | 102.80486 | 13701 ft | 268 kts | 237° |
| 2026-05-04 13:46 | 25.01484 | 102.78830 | 14518 ft | 271 kts | 237° |
| 2026-05-04 13:47 | 25.00356 | 102.77163 | 15279 ft | 275 kts | 237° |
| 2026-05-04 13:47 | 24.99149 | 102.75509 | 16049 ft | 281 kts | 231° |
| 2026-05-04 13:47 | 24.97589 | 102.74174 | 16821 ft | 291 kts | 213° |
| 2026-05-04 13:47 | 24.95635 | 102.73438 | 17481 ft | 308 kts | 194° |
| 2026-05-04 13:48 | 24.93417 | 102.73497 | 17838 ft | 336 kts | 171° |
| 2026-05-04 13:48 | 24.91216 | 102.74573 | 18174 ft | 361 kts | 147° |
| 2026-05-04 13:48 | 24.89462 | 102.76638 | 18502 ft | 383 kts | 122° |
| 2026-05-04 13:48 | 24.88488 | 102.79412 | 18801 ft | 399 kts | 99° |
| 2026-05-04 13:49 | 24.88327 | 102.82504 | 19115 ft | 412 kts | 88° |
| 2026-05-04 13:49 | 24.88265 | 102.85694 | 19405 ft | 426 kts | 97° |
| 2026-05-04 13:49 | 24.87406 | 102.88841 | 19881 ft | 432 kts | 117° |
| 2026-05-04 13:49 | 24.85857 | 102.91671 | 20444 ft | 436 kts | 125° |
| 2026-05-04 13:50 | 24.84173 | 102.94466 | 20948 ft | 441 kts | 125° |
| 2026-05-04 13:50 | 24.82540 | 102.97332 | 21458 ft | 447 kts | 121° |
| 2026-05-04 13:50 | 24.81276 | 103.00477 | 21993 ft | 453 kts | 108° |
| 2026-05-04 13:50 | 24.80618 | 103.03864 | 22519 ft | 456 kts | 95° |
| 2026-05-04 13:51 | 24.80608 | 103.07357 | 23005 ft | 460 kts | 82° |
| 2026-05-04 13:51 | 24.81258 | 103.10785 | 23509 ft | 460 kts | 70° |
| 2026-05-04 13:51 | 24.82522 | 103.13993 | 24029 ft | 458 kts | 57° |
| 2026-05-04 13:51 | 24.84340 | 103.16853 | 24430 ft | 457 kts | 45° |
| 2026-05-04 13:52 | 24.89303 | 103.21060 | 25361 ft | 450 kts | 20° |
| 2026-05-04 13:52 | 24.92203 | 103.22256 | 25861 ft | 444 kts | 9° |
| 2026-05-04 13:52 | 24.95226 | 103.22826 | 26354 ft | 441 kts | 359° |
| 2026-05-04 13:53 | 24.98284 | 103.23116 | 26867 ft | 443 kts | 358° |
| 2026-05-04 13:53 | 25.01363 | 103.23397 | 27381 ft | 448 kts | 359° |
| 2026-05-04 13:53 | 25.04441 | 103.24007 | 27905 ft | 459 kts | 9° |
| 2026-05-04 13:54 | 25.10283 | 103.27255 | 28874 ft | 484 kts | 28° |
| 2026-05-04 13:54 | 25.13048 | 103.29402 | 29331 ft | 489 kts | 28° |
| 2026-05-04 13:54 | 25.18634 | 103.33745 | 30207 ft | 497 kts | 28° |
| 2026-05-04 13:55 | 25.21410 | 103.35893 | 30572 ft | 501 kts | 28° |
| 2026-05-04 13:55 | 25.27199 | 103.40370 | 31390 ft | 506 kts | 28° |
| 2026-05-04 13:55 | 25.30089 | 103.42604 | 31783 ft | 508 kts | 28° |
| 2026-05-04 13:56 | 25.32985 | 103.44842 | 32176 ft | 510 kts | 28° |
| 2026-05-04 13:56 | 25.35893 | 103.47093 | 32534 ft | 513 kts | 28° |
| 2026-05-04 13:56 | 25.41753 | 103.51631 | 33269 ft | 517 kts | 28° |
| 2026-05-04 13:57 | 25.44701 | 103.53916 | 33585 ft | 520 kts | 28° |
| 2026-05-04 13:57 | 25.47661 | 103.56212 | 33895 ft | 522 kts | 28° |
| 2026-05-04 13:58 | 25.55624 | 103.64651 | 34874 ft | 544 kts | 51° |
| 2026-05-04 13:58 | 25.59702 | 103.71670 | 35701 ft | 541 kts | 52° |
| 2026-05-04 13:58 | 25.61726 | 103.75175 | 36085 ft | 540 kts | 52° |
| 2026-05-04 13:59 | 25.63739 | 103.78654 | 36435 ft | 538 kts | 52° |
| 2026-05-04 13:59 | 25.65761 | 103.82144 | 36687 ft | 540 kts | 52° |
| 2026-05-04 13:59 | 25.69841 | 103.89185 | 36943 ft | 547 kts | 52° |
| 2026-05-04 14:00 | 25.71894 | 103.92731 | 37046 ft | 549 kts | 52° |
| 2026-05-04 14:00 | 25.76022 | 103.99873 | 37194 ft | 553 kts | 52° |
| 2026-05-04 14:00 | 25.78095 | 104.03463 | 37266 ft | 554 kts | 52° |
| 2026-05-04 14:01 | 25.82249 | 104.10647 | 37390 ft | 554 kts | 52° |
| 2026-05-04 14:01 | 25.86454 | 104.17789 | 37533 ft | 553 kts | 51° |
| 2026-05-04 14:02 | 25.88565 | 104.21364 | 37609 ft | 553 kts | 51° |
| 2026-05-04 14:02 | 25.92763 | 104.28497 | 37737 ft | 553 kts | 51° |
| 2026-05-04 14:03 | 25.96951 | 104.35645 | 37875 ft | 553 kts | 51° |
| 2026-05-04 14:03 | 26.01158 | 104.42771 | 37983 ft | 550 kts | 48° |
| 2026-05-04 14:04 | 26.09127 | 104.51547 | 38178 ft | 535 kts | 33° |
| 2026-05-04 14:04 | 26.14824 | 104.56823 | 38313 ft | 533 kts | 33° |
| 2026-05-04 14:05 | 26.20538 | 104.62072 | 38427 ft | 534 kts | 33° |
| 2026-05-04 14:05 | 26.23385 | 104.64705 | 38501 ft | 532 kts | 33° |
| 2026-05-04 14:06 | 26.29064 | 104.69982 | 38577 ft | 534 kts | 33° |
| 2026-05-04 14:06 | 26.34731 | 104.75266 | 38764 ft | 532 kts | 33° |
| 2026-05-04 14:07 | 26.40413 | 104.80572 | 38842 ft | 533 kts | 33° |
| 2026-05-04 14:07 | 26.46088 | 104.85875 | 38916 ft | 534 kts | 33° |
| 2026-05-04 14:08 | 26.51770 | 104.91194 | 38988 ft | 534 kts | 33° |
| 2026-05-04 14:08 | 26.57428 | 104.96502 | 39062 ft | 534 kts | 33° |
| 2026-05-04 14:09 | 26.65203 | 105.05569 | 39153 ft | 555 kts | 53° |
| 2026-05-04 14:10 | 26.70219 | 105.17313 | 39252 ft | 563 kts | 62° |
| 2026-05-04 14:10 | 26.73363 | 105.25331 | 39357 ft | 562 kts | 61° |
| 2026-05-04 14:11 | 26.76513 | 105.33302 | 39371 ft | 562 kts | 60° |
| 2026-05-04 14:11 | 26.81297 | 105.45278 | 39524 ft | 562 kts | 60° |
| 2026-05-04 14:12 | 26.84475 | 105.53239 | 39614 ft | 562 kts | 60° |
| 2026-05-04 14:13 | 26.89248 | 105.65229 | 39768 ft | 563 kts | 60° |
| 2026-05-04 14:13 | 26.92418 | 105.73220 | 39874 ft | 562 kts | 60° |
| 2026-05-04 14:14 | 26.95586 | 105.81224 | 39932 ft | 563 kts | 60° |
| 2026-05-04 14:14 | 27.00320 | 105.93209 | 40008 ft | 563 kts | 61° |
| 2026-05-04 14:15 | 27.06785 | 106.09195 | 40098 ft | 560 kts | 57° |
| 2026-05-04 14:16 | 27.12230 | 106.20764 | 40160 ft | 560 kts | 56° |
| 2026-05-04 14:17 | 27.17592 | 106.32366 | 40225 ft | 560 kts | 57° |
| 2026-05-04 14:18 | 27.22885 | 106.44029 | 40356 ft | 560 kts | 57° |
| 2026-05-04 14:19 | 27.29937 | 106.59592 | 40433 ft | 560 kts | 57° |
| 2026-05-04 14:19 | 27.33468 | 106.67398 | 40451 ft | 562 kts | 57° |
| 2026-05-04 14:20 | 27.36991 | 106.75202 | 40568 ft | 560 kts | 57° |
| 2026-05-04 14:20 | 27.40492 | 106.83019 | 40593 ft | 560 kts | 57° |
| 2026-05-04 14:21 | 27.45751 | 106.94780 | 40590 ft | 562 kts | 57° |
| 2026-05-04 14:21 | 27.49252 | 107.02618 | 40633 ft | 562 kts | 57° |
| 2026-05-04 14:22 | 27.52794 | 107.10447 | 40641 ft | 563 kts | 57° |
| 2026-05-04 14:22 | 27.56348 | 107.18289 | 40648 ft | 563 kts | 57° |
| 2026-05-04 14:23 | 27.61677 | 107.30097 | 40659 ft | 564 kts | 57° |
| 2026-05-04 14:24 | 27.65223 | 107.37978 | 40669 ft | 564 kts | 57° |
| 2026-05-04 14:24 | 27.68759 | 107.45852 | 40682 ft | 565 kts | 57° |
| 2026-05-04 14:25 | 27.72280 | 107.53711 | 40681 ft | 565 kts | 57° |
| 2026-05-04 14:25 | 27.77583 | 107.65572 | 40689 ft | 565 kts | 57° |
| 2026-05-04 14:26 | 27.81118 | 107.73499 | 40693 ft | 565 kts | 57° |
| 2026-05-04 14:26 | 27.84645 | 107.81402 | 40701 ft | 565 kts | 57° |
| 2026-05-04 14:27 | 27.88253 | 107.89278 | 40704 ft | 565 kts | 56° |
| 2026-05-04 14:27 | 27.91878 | 107.97163 | 40714 ft | 566 kts | 56° |
| 2026-05-04 14:28 | 27.95479 | 108.05046 | 40705 ft | 566 kts | 57° |
| 2026-05-04 14:28 | 27.99023 | 108.12890 | 40901 ft | 554 kts | 56° |
| 2026-05-04 14:29 | 28.02521 | 108.20605 | 41072 ft | 554 kts | 56° |
| 2026-05-04 14:29 | 28.06070 | 108.28403 | 41069 ft | 560 kts | 56° |
| 2026-05-04 14:30 | 28.09612 | 108.36237 | 41071 ft | 560 kts | 56° |
| 2026-05-04 14:31 | 28.14911 | 108.48004 | 41061 ft | 560 kts | 57° |
| 2026-05-04 14:32 | 28.21978 | 108.63733 | 41069 ft | 561 kts | 56° |
| 2026-05-04 14:32 | 28.25444 | 108.71470 | 41070 ft | 561 kts | 57° |
| 2026-05-04 14:33 | 28.28967 | 108.79353 | 41068 ft | 561 kts | 57° |
| 2026-05-04 14:33 | 28.32470 | 108.87201 | 41064 ft | 562 kts | 57° |
| 2026-05-04 14:34 | 28.35992 | 108.95112 | 41061 ft | 562 kts | 57° |
| 2026-05-04 14:34 | 28.39498 | 109.03005 | 41058 ft | 562 kts | 57° |
| 2026-05-04 14:35 | 28.43023 | 109.10947 | 41059 ft | 563 kts | 57° |
| 2026-05-04 14:35 | 28.46533 | 109.18879 | 41055 ft | 563 kts | 57° |
| 2026-05-04 14:36 | 28.50034 | 109.26830 | 41053 ft | 563 kts | 57° |
| 2026-05-04 14:36 | 28.53526 | 109.34775 | 41056 ft | 564 kts | 57° |
| 2026-05-04 14:37 | 28.57024 | 109.42750 | 41051 ft | 564 kts | 57° |
| 2026-05-04 14:37 | 28.60093 | 109.51007 | 41047 ft | 570 kts | 62° |
| 2026-05-04 14:38 | 28.62976 | 109.59394 | 41039 ft | 571 kts | 63° |
| 2026-05-04 14:38 | 28.65825 | 109.67795 | 41059 ft | 570 kts | 63° |
| 2026-05-04 14:39 | 28.68775 | 109.76157 | 41044 ft | 570 kts | 62° |
| 2026-05-04 14:39 | 28.71799 | 109.84478 | 41046 ft | 570 kts | 62° |
| 2026-05-04 14:40 | 28.76295 | 109.96969 | 41043 ft | 570 kts | 62° |
| 2026-05-04 14:40 | 28.79278 | 110.05339 | 41043 ft | 570 kts | 62° |
| 2026-05-04 14:41 | 28.82256 | 110.13721 | 41046 ft | 571 kts | 62° |
| 2026-05-04 14:42 | 28.88192 | 110.30487 | 41042 ft | 571 kts | 63° |
| 2026-05-04 14:42 | 28.91156 | 110.38873 | 41034 ft | 572 kts | 63° |
| 2026-05-04 14:43 | 28.94114 | 110.47271 | 41042 ft | 571 kts | 63° |
| 2026-05-04 14:43 | 28.97066 | 110.55679 | 41042 ft | 571 kts | 63° |
| 2026-05-04 14:44 | 29.00011 | 110.64087 | 41034 ft | 572 kts | 63° |
| 2026-05-04 14:44 | 29.02959 | 110.72518 | 41035 ft | 572 kts | 63° |
| 2026-05-04 14:45 | 29.05917 | 110.80926 | 41028 ft | 572 kts | 63° |
| 2026-05-04 14:45 | 29.08910 | 110.89335 | 41013 ft | 572 kts | 62° |
| 2026-05-04 14:46 | 29.11899 | 110.97766 | 41040 ft | 573 kts | 63° |
| 2026-05-04 14:46 | 29.14875 | 111.06199 | 41021 ft | 573 kts | 63° |
| 2026-05-04 14:47 | 29.17830 | 111.14606 | 41022 ft | 573 kts | 63° |
| 2026-05-04 14:47 | 29.20801 | 111.23079 | 41023 ft | 573 kts | 63° |
| 2026-05-04 14:48 | 29.23763 | 111.31544 | 41020 ft | 574 kts | 63° |
| 2026-05-04 14:48 | 29.26715 | 111.40000 | 41017 ft | 574 kts | 63° |
| 2026-05-04 14:49 | 29.29664 | 111.48471 | 41017 ft | 574 kts | 63° |
| 2026-05-04 14:49 | 29.32601 | 111.56929 | 41020 ft | 573 kts | 63° |
| 2026-05-04 14:50 | 29.35768 | 111.65275 | 41019 ft | 566 kts | 53° |
| 2026-05-04 14:50 | 29.39904 | 111.72862 | 41017 ft | 562 kts | 50° |
| 2026-05-04 14:51 | 29.44188 | 111.80345 | 41019 ft | 561 kts | 50° |
| 2026-05-04 14:51 | 29.48479 | 111.87804 | 41014 ft | 562 kts | 50° |
| 2026-05-04 14:52 | 29.52758 | 111.95285 | 41013 ft | 562 kts | 50° |
| 2026-05-04 14:52 | 29.57024 | 112.02778 | 41014 ft | 563 kts | 50° |
| 2026-05-04 14:53 | 29.61304 | 112.10313 | 41013 ft | 563 kts | 50° |
| 2026-05-04 14:53 | 29.65565 | 112.17830 | 41013 ft | 563 kts | 50° |
| 2026-05-04 14:54 | 29.69830 | 112.25365 | 41015 ft | 563 kts | 50° |
| 2026-05-04 14:54 | 29.74097 | 112.32917 | 41012 ft | 564 kts | 51° |
| 2026-05-04 14:55 | 29.78355 | 112.40485 | 41007 ft | 564 kts | 51° |
| 2026-05-04 14:55 | 29.82593 | 112.48074 | 41011 ft | 565 kts | 51° |
| 2026-05-04 14:56 | 29.86832 | 112.55675 | 41000 ft | 565 kts | 51° |
| 2026-05-04 14:56 | 29.91064 | 112.63267 | 41007 ft | 565 kts | 51° |
| 2026-05-04 14:57 | 29.95309 | 112.70895 | 41009 ft | 565 kts | 51° |
| 2026-05-04 14:57 | 29.99541 | 112.78514 | 41011 ft | 565 kts | 51° |
| 2026-05-04 14:58 | 30.03764 | 112.86129 | 41010 ft | 566 kts | 51° |
| 2026-05-04 14:58 | 30.07994 | 112.93775 | 41010 ft | 566 kts | 51° |
| 2026-05-04 14:59 | 30.12220 | 113.01425 | 41010 ft | 566 kts | 52° |
| 2026-05-04 15:00 | 30.18532 | 113.12881 | 41011 ft | 566 kts | 52° |
| 2026-05-04 15:00 | 30.22754 | 113.20558 | 41009 ft | 565 kts | 51° |
| 2026-05-04 15:01 | 30.29160 | 113.31970 | 41022 ft | 565 kts | 51° |
| 2026-05-04 15:01 | 30.33432 | 113.39566 | 41001 ft | 565 kts | 51° |
| 2026-05-04 15:02 | 30.37694 | 113.47183 | 41004 ft | 565 kts | 51° |
| 2026-05-04 15:02 | 30.41949 | 113.54813 | 41007 ft | 564 kts | 52° |
| 2026-05-04 15:03 | 30.46192 | 113.62437 | 41009 ft | 564 kts | 52° |
| 2026-05-04 15:03 | 30.50434 | 113.70073 | 41011 ft | 564 kts | 52° |
| 2026-05-04 15:04 | 30.54658 | 113.77691 | 41014 ft | 563 kts | 52° |
| 2026-05-04 15:04 | 30.58892 | 113.85341 | 41013 ft | 563 kts | 52° |
| 2026-05-04 15:05 | 30.63104 | 113.92965 | 41016 ft | 563 kts | 52° |
| 2026-05-04 15:05 | 30.67312 | 114.00601 | 41018 ft | 562 kts | 52° |
| 2026-05-04 15:06 | 30.71519 | 114.08228 | 41021 ft | 562 kts | 52° |
| 2026-05-04 15:07 | 30.77736 | 114.19766 | 41023 ft | 566 kts | 58° |
| 2026-05-04 15:07 | 30.80840 | 114.28197 | 41023 ft | 569 kts | 64° |
| 2026-05-04 15:08 | 30.83670 | 114.36786 | 41020 ft | 570 kts | 66° |
| 2026-05-04 15:08 | 30.86400 | 114.45424 | 41020 ft | 570 kts | 66° |
| 2026-05-04 15:09 | 30.89161 | 114.54065 | 41022 ft | 570 kts | 66° |
| 2026-05-04 15:09 | 30.91954 | 114.62677 | 41022 ft | 570 kts | 65° |
| 2026-05-04 15:10 | 30.96142 | 114.75604 | 41101 ft | 569 kts | 66° |
| 2026-05-04 15:11 | 31.00314 | 114.88553 | 41128 ft | 570 kts | 66° |
| 2026-05-04 15:11 | 31.03086 | 114.97195 | 41136 ft | 570 kts | 66° |
| 2026-05-04 15:12 | 31.05851 | 115.05838 | 41140 ft | 570 kts | 66° |
| 2026-05-04 15:12 | 31.08607 | 115.14477 | 41140 ft | 570 kts | 66° |
| 2026-05-04 15:13 | 31.11360 | 115.23124 | 41143 ft | 569 kts | 66° |
| 2026-05-04 15:13 | 31.14096 | 115.31771 | 41147 ft | 570 kts | 66° |
| 2026-05-04 15:14 | 31.16884 | 115.40414 | 41155 ft | 569 kts | 65° |
| 2026-05-04 15:14 | 31.19694 | 115.49047 | 41157 ft | 570 kts | 66° |
| 2026-05-04 15:15 | 31.22490 | 115.57684 | 41160 ft | 570 kts | 66° |
| 2026-05-04 15:15 | 31.25271 | 115.66330 | 41164 ft | 570 kts | 66° |
| 2026-05-04 15:16 | 31.29438 | 115.79339 | 41162 ft | 571 kts | 66° |
| 2026-05-04 15:17 | 31.33595 | 115.92347 | 41027 ft | 571 kts | 66° |
| 2026-05-04 15:17 | 31.36411 | 116.00974 | 40555 ft | 564 kts | 66° |
| 2026-05-04 15:17 | 31.37805 | 116.05239 | 40322 ft | 560 kts | 66° |
| 2026-05-04 15:18 | 31.39190 | 116.09481 | 40086 ft | 558 kts | 66° |
| 2026-05-04 15:18 | 31.40571 | 116.13719 | 39858 ft | 558 kts | 66° |
| 2026-05-04 15:18 | 31.41946 | 116.17952 | 39638 ft | 558 kts | 66° |
| 2026-05-04 15:19 | 31.44692 | 116.26431 | 39147 ft | 558 kts | 66° |
| 2026-05-04 15:19 | 31.46057 | 116.30661 | 38603 ft | 556 kts | 66° |
| 2026-05-04 15:19 | 31.48786 | 116.39132 | 37158 ft | 556 kts | 67° |
| 2026-05-04 15:20 | 31.50143 | 116.43351 | 36445 ft | 556 kts | 67° |
| 2026-05-04 15:20 | 31.51498 | 116.47572 | 35762 ft | 555 kts | 67° |
| 2026-05-04 15:20 | 31.52456 | 116.50561 | 35411 ft | 553 kts | 67° |
| 2026-05-04 15:20 | 31.53801 | 116.54749 | 35169 ft | 546 kts | 67° |
| 2026-05-04 15:21 | 31.55390 | 116.58684 | 35127 ft | 525 kts | 54° |
| 2026-05-04 15:21 | 31.57603 | 116.61931 | 35114 ft | 499 kts | 38° |
| 2026-05-04 15:21 | 31.63195 | 116.65907 | 35116 ft | 458 kts | 15° |
| 2026-05-04 15:22 | 31.66132 | 116.67322 | 35105 ft | 457 kts | 14° |
| 2026-05-04 15:22 | 31.69056 | 116.68702 | 34716 ft | 454 kts | 14° |
| 2026-05-04 15:22 | 31.74956 | 116.71444 | 33405 ft | 459 kts | 14° |
| 2026-05-04 15:23 | 31.77926 | 116.72794 | 32803 ft | 458 kts | 14° |
| 2026-05-04 15:23 | 31.80900 | 116.74123 | 32193 ft | 458 kts | 14° |
| 2026-05-04 15:23 | 31.83877 | 116.75426 | 31590 ft | 458 kts | 14° |
| 2026-05-04 15:23 | 31.86866 | 116.76707 | 31115 ft | 454 kts | 14° |
| 2026-05-04 15:24 | 31.92710 | 116.79158 | 30436 ft | 441 kts | 14° |
| 2026-05-04 15:24 | 31.98460 | 116.81483 | 29092 ft | 442 kts | 14° |
| 2026-05-04 15:25 | 32.01392 | 116.82632 | 28229 ft | 446 kts | 14° |
| 2026-05-04 15:25 | 32.04346 | 116.83772 | 27332 ft | 450 kts | 14° |
| 2026-05-04 15:25 | 32.07313 | 116.85046 | 26461 ft | 457 kts | 20° |
| 2026-05-04 15:26 | 32.12595 | 116.89215 | 25109 ft | 463 kts | 43° |
| 2026-05-04 15:26 | 32.14569 | 116.92159 | 24786 ft | 451 kts | 55° |
| 2026-05-04 15:26 | 32.16690 | 116.98713 | 23448 ft | 418 kts | 79° |
| 2026-05-04 15:27 | 32.16862 | 117.02103 | 22385 ft | 411 kts | 92° |
| 2026-05-04 15:27 | 32.15594 | 117.08476 | 20411 ft | 394 kts | 114° |
| 2026-05-04 15:28 | 32.12078 | 117.13104 | 19011 ft | 383 kts | 154° |
| 2026-05-04 15:28 | 32.09677 | 117.14274 | 18761 ft | 372 kts | 164° |
| 2026-05-04 15:28 | 32.04886 | 117.16274 | 18716 ft | 372 kts | 161° |
| 2026-05-04 15:29 | 32.02599 | 117.17356 | 18718 ft | 373 kts | 160° |
| 2026-05-04 15:30 | 31.93081 | 117.22152 | 18718 ft | 372 kts | 158° |
| 2026-05-04 15:30 | 31.85975 | 117.25805 | 18718 ft | 372 kts | 158° |
| 2026-05-04 15:31 | 31.81248 | 117.28236 | 18719 ft | 372 kts | 158° |
| 2026-05-04 15:31 | 31.78921 | 117.29565 | 18721 ft | 373 kts | 151° |
| 2026-05-04 15:32 | 31.73735 | 117.36302 | 18725 ft | 376 kts | 126° |
| 2026-05-04 15:32 | 31.70701 | 117.41317 | 18726 ft | 377 kts | 126° |
| 2026-05-04 15:33 | 31.67662 | 117.46312 | 18725 ft | 376 kts | 127° |
| 2026-05-04 15:34 | 31.63109 | 117.53779 | 18732 ft | 376 kts | 126° |
| 2026-05-04 15:34 | 31.61807 | 117.56430 | 18730 ft | 377 kts | 113° |
| 2026-05-04 15:34 | 31.61231 | 117.62433 | 18385 ft | 372 kts | 83° |
| 2026-05-04 15:35 | 31.61885 | 117.68460 | 17238 ft | 371 kts | 82° |
| 2026-05-04 15:35 | 31.62197 | 117.71436 | 16758 ft | 368 kts | 82° |
| 2026-05-04 15:35 | 31.62500 | 117.74425 | 15976 ft | 374 kts | 83° |
| 2026-05-04 15:36 | 31.63099 | 117.80461 | 14365 ft | 359 kts | 83° |
| 2026-05-04 15:36 | 31.63375 | 117.83275 | 13911 ft | 337 kts | 83° |
| 2026-05-04 15:36 | 31.63632 | 117.85918 | 13330 ft | 320 kts | 83° |
| 2026-05-04 15:37 | 31.63882 | 117.88483 | 12578 ft | 311 kts | 83° |
| 2026-05-04 15:37 | 31.64123 | 117.90963 | 11829 ft | 304 kts | 83° |
| 2026-05-04 15:37 | 31.64360 | 117.93407 | 11103 ft | 298 kts | 83° |
| 2026-05-04 15:37 | 31.64588 | 117.95771 | 10670 ft | 283 kts | 83° |
| 2026-05-04 15:38 | 31.64809 | 117.98063 | 10543 ft | 288 kts | 83° |
| 2026-05-04 15:38 | 31.65033 | 118.00381 | 10424 ft | 286 kts | 83° |
| 2026-05-04 15:38 | 31.65255 | 118.02690 | 10303 ft | 284 kts | 82° |
| 2026-05-04 15:38 | 31.65475 | 118.04987 | 10154 ft | 284 kts | 82° |
| 2026-05-04 15:39 | 31.65695 | 118.07288 | 9827 ft | 284 kts | 82° |
| 2026-05-04 15:39 | 31.65913 | 118.09569 | 9486 ft | 281 kts | 82° |
| 2026-05-04 15:39 | 31.66347 | 118.14104 | 8914 ft | 280 kts | 83° |
| 2026-05-04 15:40 | 31.66562 | 118.16370 | 8611 ft | 279 kts | 82° |
| 2026-05-04 15:40 | 31.66683 | 118.18679 | 8334 ft | 288 kts | 88° |
| 2026-05-04 15:40 | 31.66697 | 118.21031 | 8131 ft | 288 kts | 89° |
| 2026-05-04 15:40 | 31.66700 | 118.23350 | 7774 ft | 279 kts | 89° |
| 2026-05-04 15:41 | 31.66705 | 118.25534 | 7447 ft | 265 kts | 89° |
| 2026-05-04 15:41 | 31.66710 | 118.27623 | 7184 ft | 254 kts | 89° |
| 2026-05-04 15:41 | 31.66717 | 118.29712 | 7046 ft | 255 kts | 89° |
| 2026-05-04 15:41 | 31.66723 | 118.31779 | 6930 ft | 254 kts | 89° |
| 2026-05-04 15:42 | 31.66730 | 118.33848 | 6813 ft | 254 kts | 89° |
| 2026-05-04 15:42 | 31.66736 | 118.35912 | 6678 ft | 253 kts | 89° |
| 2026-05-04 15:42 | 31.66741 | 118.37926 | 6467 ft | 244 kts | 89° |
| 2026-05-04 15:42 | 31.66747 | 118.39903 | 6233 ft | 242 kts | 89° |
| 2026-05-04 15:43 | 31.66656 | 118.41865 | 5998 ft | 241 kts | 102° |
| 2026-05-04 15:43 | 31.66114 | 118.43698 | 5802 ft | 237 kts | 115° |
| 2026-05-04 15:43 | 31.65422 | 118.45449 | 5564 ft | 236 kts | 117° |
| 2026-05-04 15:43 | 31.64723 | 118.47183 | 5331 ft | 234 kts | 117° |
| 2026-05-04 15:44 | 31.64034 | 118.48910 | 5168 ft | 235 kts | 117° |
| 2026-05-04 15:44 | 31.63351 | 118.50641 | 4919 ft | 233 kts | 117° |
| 2026-05-04 15:44 | 31.62684 | 118.52343 | 4730 ft | 227 kts | 117° |
| 2026-05-04 15:44 | 31.62035 | 118.53989 | 4595 ft | 218 kts | 117° |
| 2026-05-04 15:45 | 31.61414 | 118.55563 | 4462 ft | 210 kts | 118° |
| 2026-05-04 15:45 | 31.60813 | 118.57089 | 4342 ft | 202 kts | 118° |
| 2026-05-04 15:45 | 31.60297 | 118.58604 | 4158 ft | 203 kts | 104° |
| 2026-05-04 15:45 | 31.60480 | 118.60220 | 4045 ft | 206 kts | 70° |
| 2026-05-04 15:46 | 31.61153 | 118.61724 | 3917 ft | 207 kts | 58° |
| 2026-05-04 15:46 | 31.61929 | 118.63148 | 3801 ft | 208 kts | 58° |
| 2026-05-04 15:46 | 31.62700 | 118.64575 | 3735 ft | 206 kts | 59° |
| 2026-05-04 15:46 | 31.63455 | 118.65991 | 3445 ft | 204 kts | 59° |
| 2026-05-04 15:47 | 31.64201 | 118.67399 | 3072 ft | 204 kts | 59° |
| 2026-05-04 15:47 | 31.64950 | 118.68814 | 2833 ft | 205 kts | 59° |
| 2026-05-04 15:47 | 31.65703 | 118.70234 | 2671 ft | 205 kts | 59° |
| 2026-05-04 15:47 | 31.66450 | 118.71637 | 2540 ft | 200 kts | 59° |
| 2026-05-04 15:48 | 31.67173 | 118.72991 | 2327 ft | 191 kts | 59° |
| 2026-05-04 15:48 | 31.67858 | 118.74272 | 2058 ft | 178 kts | 59° |
| 2026-05-04 15:48 | 31.69078 | 118.76562 | 1615 ft | 155 kts | 60° |
| 2026-05-04 15:49 | 31.69631 | 118.77599 | 1415 ft | 146 kts | 60° |
| 2026-05-04 15:49 | 31.70155 | 118.78582 | 1255 ft | 140 kts | 60° |
| 2026-05-04 15:49 | 31.70676 | 118.79547 | 1016 ft | 140 kts | 60° |
| 2026-05-04 15:49 | 31.71190 | 118.80507 | 782 ft | 138 kts | 59° |
| 2026-05-04 15:50 | 31.71689 | 118.81450 | 581 ft | 135 kts | 56° |
| 2026-05-04 15:50 | 31.72179 | 118.82368 | 418 ft | 133 kts | 58° |
| 2026-05-04 15:50 | 31.72677 | 118.83287 | 284 ft | 134 kts | 56° |
| 2026-05-04 15:50 | 31.73169 | 118.84204 | 179 ft | 133 kts | 58° |
| 2026-05-04 15:51 | 31.73650 | 118.85136 | 90 ft | 133 kts | 60° |
| 2026-05-04 15:51 | 31.74086 | 118.85963 | 54 ft | 90 kts | 57° |
| 2026-05-04 15:51 | 31.74278 | 118.86313 | 56 ft | 11 kts | 57° |
| 2026-05-04 15:51 | 31.74313 | 118.86381 | 58 ft | 18 kts | 60° |
| 2026-05-04 15:52 | 31.74358 | 118.86524 | 61 ft | 19 kts | 78° |
| 2026-05-04 15:52 | 31.74368 | 118.86676 | 63 ft | 6 kts | 89° |
| 2026-05-04 15:52 | 31.74368 | 118.86677 | 65 ft | 0 kts | 89° |
| 2026-05-04 15:57 | 31.74369 | 118.86700 | 62 ft | 10 kts | 89° |
| 2026-05-04 15:57 | 31.74337 | 118.86745 | 60 ft | 6 kts | 170° |
| 2026-05-04 15:58 | 31.74291 | 118.86716 | 61 ft | 10 kts | 225° |
| 2026-05-04 15:58 | 31.74228 | 118.86613 | 58 ft | 21 kts | 237° |
| 2026-05-04 15:58 | 31.74130 | 118.86431 | 58 ft | 31 kts | 238° |
| 2026-05-04 15:58 | 31.74038 | 118.86259 | 58 ft | 0 kts | 238° |
| 2026-05-04 15:59 | 31.74028 | 118.86241 | 55 ft | 13 kts | 238° |
| 2026-05-04 15:59 | 31.73953 | 118.86100 | 55 ft | 22 kts | 240° |
| 2026-05-04 15:59 | 31.73884 | 118.85967 | 55 ft | 13 kts | 237° |
| 2026-05-04 15:59 | 31.73836 | 118.85880 | 55 ft | 14 kts | 237° |
| 2026-05-04 16:00 | 31.73770 | 118.85792 | 57 ft | 12 kts | 196° |
| 2026-05-04 16:00 | 31.73686 | 118.85814 | 63 ft | 13 kts | 149° |
| 2026-05-04 16:00 | 31.73631 | 118.85855 | 55 ft | 10 kts | 147° |
| 2026-05-04 16:00 | 31.73456 | 118.85986 | 55 ft | 49 kts | 147° |
| 2026-05-04 16:01 | 31.73373 | 118.86049 | 59 ft | 0 kts | 147° |
| 2026-05-04 16:01 | 31.73338 | 118.86075 | 56 ft | 33 kts | 147° |
| 2026-05-04 16:01 | 31.73012 | 118.86313 | 59 ft | 54 kts | 148° |
| 2026-05-04 16:01 | 31.72925 | 118.86375 | 58 ft | 0 kts | 148° |
| 2026-05-04 16:02 | 31.72886 | 118.86406 | 60 ft | 15 kts | 141° |
| 2026-05-04 16:02 | 31.72790 | 118.86480 | 58 ft | 18 kts | 147° |
| 2026-05-04 16:02 | 31.72705 | 118.86555 | 62 ft | 0 kts | 111° |
| 2026-05-04 16:03 | 31.72703 | 118.86565 | 61 ft | 9 kts | 101° |
| 2026-05-04 16:03 | 31.72760 | 118.86712 | 55 ft | 23 kts | 57° |
| 2026-05-04 16:03 | 31.72853 | 118.86880 | 55 ft | 26 kts | 57° |
| 2026-05-04 16:04 | 31.72935 | 118.87038 | 55 ft | 9 kts | 58° |
| 2026-05-04 16:04 | 31.73002 | 118.87140 | 57 ft | 0 kts | 12° |
| 2026-05-04 16:04 | 31.73009 | 118.87133 | 58 ft | 2 kts | 322° |
| 2026-05-04 16:05 | 31.73021 | 118.87119 | 55 ft | 4 kts | 315° |
| 2026-05-04 16:05 | 31.73033 | 118.87096 | 57 ft | 1 kts | 273° |
| 2026-05-04 16:05 | 31.73018 | 118.87060 | 55 ft | 4 kts | 250° |
| 2026-05-04 16:06 | 31.73022 | 118.87036 | 55 ft | 0 kts | 300° |
| 2026-05-04 16:06 | 31.73039 | 118.87009 | 56 ft | 0 kts | 328° |